sensor_id;sensor_type;location;lat;lon;timestamp;pressure;altitude;pressure_sealevel;temperature;humidity
55271;BME280;41132;47.162;9.470;2023-04-01T00:01:06;95570.97;;;7.28;100.00
55271;BME280;41132;47.162;9.470;2023-04-01T00:03:32;95546.38;;;7.47;100.00
55271;BME280;41132;47.162;9.470;2023-04-01T00:05:58;95571.03;;;7.61;100.00
55271;BME280;41132;47.162;9.470;2023-04-01T00:08:25;95571.56;;;7.64;100.00
55271;BME280;41132;47.162;9.470;2023-04-01T00:10:51;95579.72;;;7.69;100.00
55271;BME280;41132;47.162;9.470;2023-04-01T00:13:17;95576.13;;;7.62;100.00
55271;BME280;41132;47.162;9.470;2023-04-01T00:15:43;95578.75;;;7.79;100.00
55271;BME280;41132;47.162;9.470;2023-04-01T00:18:08;95579.72;;;7.69;100.00
55271;BME280;41132;47.162;9.470;2023-04-01T00:20:34;95591.28;;;7.50;100.00
55271;BME280;41132;47.162;9.470;2023-04-01T00:23:00;95580.19;;;7.65;100.00
55271;BME280;41132;47.162;9.470;2023-04-01T00:25:26;95584.59;;;7.56;100.00
55271;BME280;41132;47.162;9.470;2023-04-01T00:27:51;95591.78;;;7.62;100.00
55271;BME280;41132;47.162;9.470;2023-04-01T00:30:17;95596.50;;;7.50;100.00
55271;BME280;41132;47.162;9.470;2023-04-01T00:32:43;95590.47;;;7.50;100.00
55271;BME280;41132;47.162;9.470;2023-04-01T00:35:08;95585.19;;;7.42;100.00
55271;BME280;41132;47.162;9.470;2023-04-01T00:37:37;95583.44;;;7.50;100.00
55271;BME280;41132;47.162;9.470;2023-04-01T00:40:05;95597.97;;;7.45;100.00
55271;BME280;41132;47.162;9.470;2023-04-01T00:42:32;95582.50;;;7.17;100.00
55271;BME280;41132;47.162;9.470;2023-04-01T00:44:57;95591.53;;;6.97;100.00
55271;BME280;41132;47.162;9.470;2023-04-01T00:47:25;95597.81;;;7.12;100.00
55271;BME280;41132;47.162;9.470;2023-04-01T00:49:52;95598.34;;;7.24;100.00
55271;BME280;41132;47.162;9.470;2023-04-01T00:52:22;95589.03;;;7.21;100.00
55271;BME280;41132;47.162;9.470;2023-04-01T00:54:54;95591.50;;;7.23;100.00
55271;BME280;41132;47.162;9.470;2023-04-01T00:57:28;95598.88;;;7.27;100.00
55271;BME280;41132;47.162;9.470;2023-04-01T00:59:56;95593.31;;;7.30;100.00
55271;BME280;41132;47.162;9.470;2023-04-01T01:02:22;95591.84;;;7.28;100.00
55271;BME280;41132;47.162;9.470;2023-04-01T01:04:47;95588.09;;;7.30;100.00
55271;BME280;41132;47.162;9.470;2023-04-01T01:10:34;95570.38;;;7.50;100.00
55271;BME280;41132;47.162;9.470;2023-04-01T01:13:10;95570.06;;;7.53;100.00
55271;BME280;41132;47.162;9.470;2023-04-01T01:15:57;95569.41;;;7.51;100.00
55271;BME280;41132;47.162;9.470;2023-04-01T01:18:39;95572.00;;;7.51;100.00
55271;BME280;41132;47.162;9.470;2023-04-01T01:21:21;95561.59;;;7.60;100.00
55271;BME280;41132;47.162;9.470;2023-04-01T01:26:55;95540.69;;;7.51;100.00
55271;BME280;41132;47.162;9.470;2023-04-01T01:32:02;95539.88;;;7.51;100.00
55271;BME280;41132;47.162;9.470;2023-04-01T01:34:46;95544.94;;;7.61;100.00
55271;BME280;41132;47.162;9.470;2023-04-01T01:37:17;95550.66;;;7.64;100.00
55271;BME280;41132;47.162;9.470;2023-04-01T01:39:47;95554.09;;;7.65;100.00
55271;BME280;41132;47.162;9.470;2023-04-01T01:42:15;95561.41;;;7.53;100.00
55271;BME280;41132;47.162;9.470;2023-04-01T01:44:44;95548.31;;;7.37;100.00
55271;BME280;41132;47.162;9.470;2023-04-01T01:47:11;95558.34;;;7.15;100.00
55271;BME280;41132;47.162;9.470;2023-04-01T01:49:38;95561.59;;;7.09;100.00
55271;BME280;41132;47.162;9.470;2023-04-01T01:52:06;95567.91;;;6.98;100.00
55271;BME280;41132;47.162;9.470;2023-04-01T01:54:31;95543.56;;;6.81;100.00
55271;BME280;41132;47.162;9.470;2023-04-01T01:57:07;95557.59;;;6.88;100.00
55271;BME280;41132;47.162;9.470;2023-04-01T01:59:37;95542.91;;;6.87;100.00
55271;BME280;41132;47.162;9.470;2023-04-01T02:02:03;95517.56;;;6.72;100.00
55271;BME280;41132;47.162;9.470;2023-04-01T02:04:35;95530.84;;;6.86;100.00
55271;BME280;41132;47.162;9.470;2023-04-01T02:07:05;95526.38;;;6.71;100.00
55271;BME280;41132;47.162;9.470;2023-04-01T02:09:32;95540.88;;;6.73;100.00
55271;BME280;41132;47.162;9.470;2023-04-01T02:12:05;95556.75;;;6.80;100.00
55271;BME280;41132;47.162;9.470;2023-04-01T02:14:49;95555.09;;;6.79;100.00
55271;BME280;41132;47.162;9.470;2023-04-01T02:17:19;95543.50;;;6.73;100.00
55271;BME280;41132;47.162;9.470;2023-04-01T02:19:54;95527.50;;;6.68;100.00
55271;BME280;41132;47.162;9.470;2023-04-01T02:22:24;95551.81;;;6.77;100.00
55271;BME280;41132;47.162;9.470;2023-04-01T02:24:53;95546.25;;;6.72;100.00
55271;BME280;41132;47.162;9.470;2023-04-01T02:27:20;95530.94;;;6.77;100.00
55271;BME280;41132;47.162;9.470;2023-04-01T02:29:46;95541.28;;;6.86;100.00
55271;BME280;41132;47.162;9.470;2023-04-01T02:32:12;95533.72;;;6.75;100.00
55271;BME280;41132;47.162;9.470;2023-04-01T02:34:38;95512.00;;;6.66;100.00
55271;BME280;41132;47.162;9.470;2023-04-01T02:37:04;95522.03;;;6.79;100.00
55271;BME280;41132;47.162;9.470;2023-04-01T02:39:30;95527.91;;;6.89;100.00
55271;BME280;41132;47.162;9.470;2023-04-01T02:41:55;95528.44;;;6.93;100.00
55271;BME280;41132;47.162;9.470;2023-04-01T02:44:20;95521.56;;;6.84;100.00
55271;BME280;41132;47.162;9.470;2023-04-01T02:46:46;95515.88;;;6.88;100.00
55271;BME280;41132;47.162;9.470;2023-04-01T02:49:11;95526.50;;;6.95;100.00
55271;BME280;41132;47.162;9.470;2023-04-01T02:51:37;95521.09;;;6.97;100.00
55271;BME280;41132;47.162;9.470;2023-04-01T02:54:02;95531.72;;;7.03;100.00
55271;BME280;41132;47.162;9.470;2023-04-01T02:56:28;95523.44;;;7.08;100.00
55271;BME280;41132;47.162;9.470;2023-04-01T02:58:53;95516.06;;;7.03;100.00
55271;BME280;41132;47.162;9.470;2023-04-01T03:01:20;95505.06;;;6.83;100.00
55271;BME280;41132;47.162;9.470;2023-04-01T03:03:46;95519.03;;;6.74;100.00
55271;BME280;41132;47.162;9.470;2023-04-01T03:06:13;95531.31;;;6.82;100.00
55271;BME280;41132;47.162;9.470;2023-04-01T03:08:40;95530.06;;;6.94;100.00
55271;BME280;41132;47.162;9.470;2023-04-01T03:11:06;95528.84;;;6.80;100.00
55271;BME280;41132;47.162;9.470;2023-04-01T03:13:32;95525.94;;;6.83;100.00
55271;BME280;41132;47.162;9.470;2023-04-01T03:15:57;95527.97;;;6.98;100.00
55271;BME280;41132;47.162;9.470;2023-04-01T03:18:23;95521.03;;;6.80;100.00
55271;BME280;41132;47.162;9.470;2023-04-01T03:20:48;95504.25;;;6.83;100.00
55271;BME280;41132;47.162;9.470;2023-04-01T03:23:14;95504.88;;;6.77;100.00
55271;BME280;41132;47.162;9.470;2023-04-01T03:25:41;95500.13;;;6.72;100.00
55271;BME280;41132;47.162;9.470;2023-04-01T03:28:06;95502.56;;;6.65;100.00
55271;BME280;41132;47.162;9.470;2023-04-01T03:30:32;95507.03;;;6.81;100.00
55271;BME280;41132;47.162;9.470;2023-04-01T03:32:58;95518.91;;;6.76;100.00
55271;BME280;41132;47.162;9.470;2023-04-01T03:35:26;95519.03;;;6.74;100.00
55271;BME280;41132;47.162;9.470;2023-04-01T03:37:51;95515.66;;;6.82;100.00
55271;BME280;41132;47.162;9.470;2023-04-01T03:40:17;95512.88;;;6.83;100.00
55271;BME280;41132;47.162;9.470;2023-04-01T03:42:42;95529.91;;;6.96;100.00
55271;BME280;41132;47.162;9.470;2023-04-01T03:45:08;95523.56;;;6.98;100.00
55271;BME280;41132;47.162;9.470;2023-04-01T03:47:34;95537.75;;;7.04;100.00
55271;BME280;41132;47.162;9.470;2023-04-01T03:50:00;95526.59;;;6.85;100.00
55271;BME280;41132;47.162;9.470;2023-04-01T03:52:25;95531.34;;;6.90;100.00
55271;BME280;41132;47.162;9.470;2023-04-01T03:54:50;95527.97;;;6.98;100.00
55271;BME280;41132;47.162;9.470;2023-04-01T03:57:16;95514.75;;;6.99;100.00
55271;BME280;41132;47.162;9.470;2023-04-01T03:59:41;95534.53;;;7.10;100.00
55271;BME280;41132;47.162;9.470;2023-04-01T04:02:07;95528.06;;;6.80;100.00
55271;BME280;41132;47.162;9.470;2023-04-01T04:04:32;95529.66;;;6.73;100.00
55271;BME280;41132;47.162;9.470;2023-04-01T04:06:57;95538.00;;;6.84;100.00
55271;BME280;41132;47.162;9.470;2023-04-01T04:09:23;95540.94;;;6.81;100.00
55271;BME280;41132;47.162;9.470;2023-04-01T04:11:49;95530.41;;;6.65;100.00
55271;BME280;41132;47.162;9.470;2023-04-01T04:14:15;95540.28;;;6.79;100.00
55271;BME280;41132;47.162;9.470;2023-04-01T04:16:40;95529.94;;;6.69;100.00
55271;BME280;41132;47.162;9.470;2023-04-01T04:19:06;95533.75;;;6.83;100.00
55271;BME280;41132;47.162;9.470;2023-04-01T04:21:31;95521.38;;;6.85;100.00
55271;BME280;41132;47.162;9.470;2023-04-01T04:23:58;95503.88;;;6.69;100.00
55271;BME280;41132;47.162;9.470;2023-04-01T04:26:25;95505.19;;;6.74;100.00
55271;BME280;41132;47.162;9.470;2023-04-01T04:28:51;95501.72;;;6.65;100.00
55271;BME280;41132;47.162;9.470;2023-04-01T04:31:20;95529.66;;;6.73;100.00
55271;BME280;41132;47.162;9.470;2023-04-01T04:33:46;95510.56;;;6.72;100.00
55271;BME280;41132;47.162;9.470;2023-04-01T04:36:13;95523.97;;;6.85;100.00
55271;BME280;41132;47.162;9.470;2023-04-01T04:38:38;95529.94;;;6.69;100.00
55271;BME280;41132;47.162;9.470;2023-04-01T04:41:08;95541.28;;;6.86;100.00
55271;BME280;41132;47.162;9.470;2023-04-01T04:43:36;95546.31;;;6.88;100.00
55271;BME280;41132;47.162;9.470;2023-04-01T04:46:05;95536.72;;;6.88;100.00
55271;BME280;41132;47.162;9.470;2023-04-01T04:48:31;95538.34;;;6.89;100.00
55271;BME280;41132;47.162;9.470;2023-04-01T04:50:56;95533.13;;;6.89;100.00
55271;BME280;41132;47.162;9.470;2023-04-01T04:53:22;95528.78;;;6.98;100.00
55271;BME280;41132;47.162;9.470;2023-04-01T04:55:48;95521.75;;;6.90;100.00
55271;BME280;41132;47.162;9.470;2023-04-01T04:58:15;95519.16;;;6.99;100.00
55271;BME280;41132;47.162;9.470;2023-04-01T05:00:41;95515.59;;;7.00;100.00
55271;BME280;41132;47.162;9.470;2023-04-01T05:03:07;95530.78;;;7.13;100.00
55271;BME280;41132;47.162;9.470;2023-04-01T05:05:32;95530.13;;;7.10;100.00
55271;BME280;41132;47.162;9.470;2023-04-01T05:07:57;95521.00;;;7.06;100.00
55271;BME280;41132;47.162;9.470;2023-04-01T05:10:23;95536.47;;;7.08;100.00
55271;BME280;41132;47.162;9.470;2023-04-01T05:12:48;95537.31;;;7.17;100.00
55271;BME280;41132;47.162;9.470;2023-04-01T05:15:14;95523.63;;;7.15;100.00
55271;BME280;41132;47.162;9.470;2023-04-01T05:17:40;95518.06;;;7.09;100.00
55271;BME280;41132;47.162;9.470;2023-04-01T05:20:06;95543.19;;;7.19;100.00
55271;BME280;41132;47.162;9.470;2023-04-01T05:22:31;95540.38;;;7.04;100.00
55271;BME280;41132;47.162;9.470;2023-04-01T05:24:57;95544.91;;;6.94;100.00
55271;BME280;41132;47.162;9.470;2023-04-01T05:27:22;95528.72;;;6.82;100.00
55271;BME280;41132;47.162;9.470;2023-04-01T05:29:48;95545.50;;;6.87;100.00
55271;BME280;41132;47.162;9.470;2023-04-01T05:32:13;95544.44;;;6.72;100.00
55271;BME280;41132;47.162;9.470;2023-04-01T05:34:38;95547.47;;;6.85;100.00
55271;BME280;41132;47.162;9.470;2023-04-01T05:37:04;95561.91;;;7.06;100.00
55271;BME280;41132;47.162;9.470;2023-04-01T05:39:29;95582.44;;;7.01;100.00
55271;BME280;41132;47.162;9.470;2023-04-01T05:41:55;95583.38;;;6.92;100.00
55271;BME280;41132;47.162;9.470;2023-04-01T05:44:20;95603.16;;;6.76;100.00
55271;BME280;41132;47.162;9.470;2023-04-01T05:46:45;95633.72;;;6.84;100.00
55271;BME280;41132;47.162;9.470;2023-04-01T05:49:11;95632.59;;;6.95;100.00
55271;BME280;41132;47.162;9.470;2023-04-01T05:51:36;95634.38;;;6.86;100.00
55271;BME280;41132;47.162;9.470;2023-04-01T05:54:04;95635.41;;;7.01;100.00
55271;BME280;41132;47.162;9.470;2023-04-01T05:56:30;95628.22;;;6.95;100.00
55271;BME280;41132;47.162;9.470;2023-04-01T05:58:55;95630.41;;;7.08;100.00
55271;BME280;41132;47.162;9.470;2023-04-01T06:01:20;95646.88;;;7.08;100.00
55271;BME280;41132;47.162;9.470;2023-04-01T06:03:46;95663.06;;;7.12;100.00
55271;BME280;41132;47.162;9.470;2023-04-01T06:06:20;95671.59;;;7.22;100.00
55271;BME280;41132;47.162;9.470;2023-04-01T06:08:48;95660.03;;;6.99;100.00
55271;BME280;41132;47.162;9.470;2023-04-01T06:30:43;95648.22;;;6.86;100.00
55271;BME280;41132;47.162;9.470;2023-04-01T06:33:17;95628.69;;;6.64;100.00
55271;BME280;41132;47.162;9.470;2023-04-01T06:36:15;95620.97;;;6.55;100.00
55271;BME280;41132;47.162;9.470;2023-04-01T06:41:58;95632.41;;;6.88;100.00
55271;BME280;41132;47.162;9.470;2023-04-01T06:47:48;95626.91;;;6.91;100.00
55271;BME280;41132;47.162;9.470;2023-04-01T06:50:26;95628.53;;;6.92;100.00
55271;BME280;41132;47.162;9.470;2023-04-01T06:58:04;95629.31;;;7.19;100.00
55271;BME280;41132;47.162;9.470;2023-04-01T07:00:46;95617.69;;;7.05;100.00
55271;BME280;41132;47.162;9.470;2023-04-01T07:06:03;95596.25;;;6.93;100.00
55271;BME280;41132;47.162;9.470;2023-04-01T07:41:12;95599.69;;;7.28;100.00
55271;BME280;41132;47.162;9.470;2023-04-01T07:49:08;95610.06;;;7.20;100.00
55271;BME280;41132;47.162;9.470;2023-04-01T07:51:46;95613.59;;;7.37;100.00
55271;BME280;41132;47.162;9.470;2023-04-01T07:57:02;95625.25;;;7.67;100.00
55271;BME280;41132;47.162;9.470;2023-04-01T07:59:48;95605.53;;;7.72;100.00
55271;BME280;41132;47.162;9.470;2023-04-01T08:08:25;95607.31;;;7.72;100.00
55271;BME280;41132;47.162;9.470;2023-04-01T08:13:57;95613.69;;;7.69;100.00
55271;BME280;41132;47.162;9.470;2023-04-01T08:16:44;95614.34;;;7.71;100.00
55271;BME280;41132;47.162;9.470;2023-04-01T08:19:27;95624.66;;;7.81;100.00
55271;BME280;41132;47.162;9.470;2023-04-01T08:21:58;95630.53;;;7.75;100.00
55271;BME280;41132;47.162;9.470;2023-04-01T08:24:40;95629.91;;;7.81;100.00
55271;BME280;41132;47.162;9.470;2023-04-01T08:27:13;95640.50;;;7.88;100.00
55271;BME280;41132;47.162;9.470;2023-04-01T08:29:46;95625.66;;;7.97;100.00
55271;BME280;41132;47.162;9.470;2023-04-01T08:32:35;95622.41;;;8.03;100.00
55271;BME280;41132;47.162;9.470;2023-04-01T08:35:41;95635.81;;;8.16;100.00
55271;BME280;41132;47.162;9.470;2023-04-01T08:38:15;95626.69;;;8.28;100.00
55271;BME280;41132;47.162;9.470;2023-04-01T08:40:58;95623.94;;;8.38;100.00
55271;BME280;41132;47.162;9.470;2023-04-01T08:44:04;95624.09;;;8.45;100.00
55271;BME280;41132;47.162;9.470;2023-04-01T09:00:34;95622.66;;;8.59;100.00
55271;BME280;41132;47.162;9.470;2023-04-01T09:03:13;95615.28;;;8.70;100.00
55271;BME280;41132;47.162;9.470;2023-04-01T09:08:59;95617.22;;;8.68;100.00
55271;BME280;41132;47.162;9.470;2023-04-01T09:17:29;95630.16;;;8.70;99.82
55271;BME280;41132;47.162;9.470;2023-04-01T09:28:18;95630.94;;;8.78;100.00
55271;BME280;41132;47.162;9.470;2023-04-01T09:31:23;95630.00;;;8.63;100.00
55271;BME280;41132;47.162;9.470;2023-04-01T09:34:06;95637.31;;;8.84;100.00
55271;BME280;41132;47.162;9.470;2023-04-01T09:37:19;95626.69;;;8.86;100.00
55271;BME280;41132;47.162;9.470;2023-04-01T09:53:53;95623.53;;;9.07;100.00
55271;BME280;41132;47.162;9.470;2023-04-01T10:11:57;95629.97;;;8.80;100.00
55271;BME280;41132;47.162;9.470;2023-04-01T10:20:41;95618.00;;;9.02;100.00
55271;BME280;41132;47.162;9.470;2023-04-01T10:25:57;95625.59;;;9.36;100.00
55271;BME280;41132;47.162;9.470;2023-04-01T10:36:55;95611.91;;;9.09;100.00
55271;BME280;41132;47.162;9.470;2023-04-01T10:39:38;95616.44;;;9.24;100.00
55271;BME280;41132;47.162;9.470;2023-04-01T10:48:18;95616.53;;;9.47;100.00
55271;BME280;41132;47.162;9.470;2023-04-01T10:51:08;95602.59;;;9.54;100.00
55271;BME280;41132;47.162;9.470;2023-04-01T11:02:20;95597.69;;;9.51;100.00
55271;BME280;41132;47.162;9.470;2023-04-01T11:05:26;95583.13;;;9.49;100.00
55271;BME280;41132;47.162;9.470;2023-04-01T11:25:15;95587.19;;;9.82;100.00
55271;BME280;41132;47.162;9.470;2023-04-01T11:27:50;95585.06;;;9.86;99.15
55271;BME280;41132;47.162;9.470;2023-04-01T11:30:55;95589.66;;;9.84;100.00
55271;BME280;41132;47.162;9.470;2023-04-01T11:33:43;95591.59;;;9.90;100.00
55271;BME280;41132;47.162;9.470;2023-04-01T11:43:51;95580.63;;;10.10;92.80
55271;BME280;41132;47.162;9.470;2023-04-01T11:46:24;95592.94;;;10.09;91.10
55271;BME280;41132;47.162;9.470;2023-04-01T12:00:43;95584.41;;;10.38;87.86
55271;BME280;41132;47.162;9.470;2023-04-01T12:16:51;95577.59;;;10.82;93.25
55271;BME280;41132;47.162;9.470;2023-04-01T12:22:11;95588.53;;;10.71;80.32
55271;BME280;41132;47.162;9.470;2023-04-01T12:24:52;95588.63;;;10.77;81.26
55271;BME280;41132;47.162;9.470;2023-04-01T12:27:41;95596.34;;;10.79;79.33
55271;BME280;41132;47.162;9.470;2023-04-01T12:30:27;95593.06;;;10.77;76.01
55271;BME280;41132;47.162;9.470;2023-04-01T12:33:04;95595.69;;;10.92;80.02
55271;BME280;41132;47.162;9.470;2023-04-01T12:36:59;95618.09;;;11.02;76.05
55271;BME280;41132;47.162;9.470;2023-04-01T12:47:37;95602.16;;;11.19;76.72
55271;BME280;41132;47.162;9.470;2023-04-01T12:56:00;95604.59;;;11.35;73.50
55271;BME280;41132;47.162;9.470;2023-04-01T12:58:44;95598.06;;;11.46;78.19
55271;BME280;41132;47.162;9.470;2023-04-01T13:01:26;95590.09;;;11.39;76.34
55271;BME280;41132;47.162;9.470;2023-04-01T13:09:59;95584.84;;;11.10;77.31
55271;BME280;41132;47.162;9.470;2023-04-01T13:15:28;95593.09;;;11.06;71.37
55271;BME280;41132;47.162;9.470;2023-04-01T13:29:01;95588.38;;;11.17;72.54
55271;BME280;41132;47.162;9.470;2023-04-01T13:34:26;95593.91;;;11.07;69.64
55271;BME280;41132;47.162;9.470;2023-04-01T13:37:02;95599.16;;;11.07;71.48
55271;BME280;41132;47.162;9.470;2023-04-01T13:42:24;95609.28;;;11.10;78.27
55271;BME280;41132;47.162;9.470;2023-04-01T13:45:12;95613.91;;;11.08;77.72
55271;BME280;41132;47.162;9.470;2023-04-01T13:50:34;95608.84;;;11.21;73.60
55271;BME280;41132;47.162;9.470;2023-04-01T13:56:37;95612.56;;;11.27;70.63
55271;BME280;41132;47.162;9.470;2023-04-01T14:05:15;95611.66;;;11.49;63.59
55271;BME280;41132;47.162;9.470;2023-04-01T14:08:09;95610.94;;;11.26;68.92
55271;BME280;41132;47.162;9.470;2023-04-01T14:14:06;95595.38;;;11.24;72.29
55271;BME280;41132;47.162;9.470;2023-04-01T14:28:06;95583.31;;;11.30;71.85
55271;BME280;41132;47.162;9.470;2023-04-01T14:38:27;95565.63;;;11.39;77.18
55271;BME280;41132;47.162;9.470;2023-04-01T14:41:19;95561.81;;;11.41;78.96
55271;BME280;41132;47.162;9.470;2023-04-01T14:49:15;95557.47;;;11.48;70.53
55271;BME280;41132;47.162;9.470;2023-04-01T14:51:43;95556.50;;;11.35;65.29
55271;BME280;41132;47.162;9.470;2023-04-01T14:54:14;95554.41;;;11.30;64.80
55271;BME280;41132;47.162;9.470;2023-04-01T14:59:32;95551.97;;;11.28;64.72
55271;BME280;41132;47.162;9.470;2023-04-01T15:07:50;95543.28;;;11.28;65.79
55271;BME280;41132;47.162;9.470;2023-04-01T15:13:41;95546.63;;;11.37;68.16
55271;BME280;41132;47.162;9.470;2023-04-01T15:27:27;95544.84;;;11.22;64.84
55271;BME280;41132;47.162;9.470;2023-04-01T15:30:17;95550.16;;;11.29;65.07
55271;BME280;41132;47.162;9.470;2023-04-01T15:45:58;95541.09;;;11.17;70.46
55271;BME280;41132;47.162;9.470;2023-04-01T15:54:24;95533.91;;;11.04;69.10
55271;BME280;41132;47.162;9.470;2023-04-01T15:59:54;95539.94;;;11.04;69.69
55271;BME280;41132;47.162;9.470;2023-04-01T16:02:31;95552.53;;;10.94;75.90
55271;BME280;41132;47.162;9.470;2023-04-01T16:05:26;95561.22;;;10.80;82.77
55271;BME280;41132;47.162;9.470;2023-04-01T16:08:40;95577.47;;;10.60;83.77
55271;BME280;41132;47.162;9.470;2023-04-01T16:17:29;95614.59;;;10.34;87.19
55271;BME280;41132;47.162;9.470;2023-04-01T16:22:38;95635.53;;;10.11;100.00
55271;BME280;41132;47.162;9.470;2023-04-01T16:30:38;95661.38;;;9.52;100.00
55271;BME280;41132;47.162;9.470;2023-04-01T16:33:22;95666.53;;;9.20;100.00
55271;BME280;41132;47.162;9.470;2023-04-01T16:35:58;95663.13;;;9.12;100.00
55271;BME280;41132;47.162;9.470;2023-04-01T16:41:32;95656.88;;;9.29;100.00
55271;BME280;41132;47.162;9.470;2023-04-01T16:44:24;95654.19;;;9.37;100.00
55271;BME280;41132;47.162;9.470;2023-04-01T16:47:08;95642.69;;;9.55;100.00
55271;BME280;41132;47.162;9.470;2023-04-01T16:49:46;95649.59;;;9.48;100.00
55271;BME280;41132;47.162;9.470;2023-04-01T16:52:15;95649.81;;;9.30;100.00
55271;BME280;41132;47.162;9.470;2023-04-01T16:54:55;95650.19;;;9.18;100.00
55271;BME280;41132;47.162;9.470;2023-04-01T16:57:35;95662.47;;;9.18;100.00
55271;BME280;41132;47.162;9.470;2023-04-01T17:00:24;95658.88;;;9.11;100.00
55271;BME280;41132;47.162;9.470;2023-04-01T17:08:40;95659.88;;;9.02;100.00
55271;BME280;41132;47.162;9.470;2023-04-01T17:40:44;95673.47;;;8.64;100.00
55271;BME280;41132;47.162;9.470;2023-04-01T17:45:54;95672.81;;;8.62;100.00
55271;BME280;41132;47.162;9.470;2023-04-01T17:51:37;95670.03;;;8.64;100.00
55271;BME280;41132;47.162;9.470;2023-04-01T17:59:36;95673.78;;;8.53;100.00
55271;BME280;41132;47.162;9.470;2023-04-01T18:03:28;95668.88;;;8.33;100.00
55271;BME280;41132;47.162;9.470;2023-04-01T18:08:45;95684.41;;;8.51;100.00
55271;BME280;41132;47.162;9.470;2023-04-01T18:11:39;95690.28;;;8.53;100.00
55271;BME280;41132;47.162;9.470;2023-04-01T18:20:18;95723.47;;;8.45;100.00
55271;BME280;41132;47.162;9.470;2023-04-01T18:22:56;95727.09;;;8.52;100.00
55271;BME280;41132;47.162;9.470;2023-04-01T18:25:32;95737.38;;;8.53;100.00
55271;BME280;41132;47.162;9.470;2023-04-01T18:28:16;95750.44;;;8.45;100.00
55271;BME280;41132;47.162;9.470;2023-04-01T18:30:51;95758.72;;;8.32;100.00
55271;BME280;41132;47.162;9.470;2023-04-01T18:39:12;95745.50;;;8.34;100.00
55271;BME280;41132;47.162;9.470;2023-04-01T18:44:41;95755.59;;;8.21;100.00
55271;BME280;41132;47.162;9.470;2023-04-01T18:47:43;95768.50;;;8.30;100.00
55271;BME280;41132;47.162;9.470;2023-04-01T18:50:32;95767.19;;;8.26;100.00
55271;BME280;41132;47.162;9.470;2023-04-01T18:53:30;95766.88;;;8.37;100.00
55271;BME280;41132;47.162;9.470;2023-04-01T18:56:03;95763.63;;;8.35;100.00
55271;BME280;41132;47.162;9.470;2023-04-01T18:58:35;95767.00;;;8.20;100.00
55271;BME280;41132;47.162;9.470;2023-04-01T19:01:26;95777.91;;;8.07;100.00
55271;BME280;41132;47.162;9.470;2023-04-01T19:04:15;95772.69;;;8.15;100.00
55271;BME280;41132;47.162;9.470;2023-04-01T19:09:54;95777.19;;;7.88;100.00
55271;BME280;41132;47.162;9.470;2023-04-01T19:12:42;95773.59;;;7.89;100.00
55271;BME280;41132;47.162;9.470;2023-04-01T19:18:02;95776.06;;;7.99;100.00
55271;BME280;41132;47.162;9.470;2023-04-01T19:20:38;95778.22;;;8.04;100.00
55271;BME280;41132;47.162;9.470;2023-04-01T19:26:11;95775.88;;;7.92;100.00
55271;BME280;41132;47.162;9.470;2023-04-01T19:28:50;95776.25;;;7.98;100.00
55271;BME280;41132;47.162;9.470;2023-04-01T19:50:53;95788.25;;;7.56;100.00
55271;BME280;41132;47.162;9.470;2023-04-01T19:56:18;95779.72;;;7.46;100.00
55271;BME280;41132;47.162;9.470;2023-04-01T19:59:18;95791.00;;;7.46;100.00
55271;BME280;41132;47.162;9.470;2023-04-01T20:02:03;95792.00;;;7.53;100.00
55271;BME280;41132;47.162;9.470;2023-04-01T20:04:43;95784.69;;;7.57;100.00
55271;BME280;41132;47.162;9.470;2023-04-01T20:07:30;95792.19;;;7.52;100.00
55271;BME280;41132;47.162;9.470;2023-04-01T20:15:33;95795.25;;;7.47;100.00
55271;BME280;41132;47.162;9.470;2023-04-01T20:18:02;95798.31;;;7.43;100.00
55271;BME280;41132;47.162;9.470;2023-04-01T20:20:29;95799.34;;;7.50;100.00
55271;BME280;41132;47.162;9.470;2023-04-01T20:23:05;95801.31;;;7.56;100.00
55271;BME280;41132;47.162;9.470;2023-04-01T20:26:21;95790.44;;;7.35;100.00
55271;BME280;41132;47.162;9.470;2023-04-01T20:28:43;95800.66;;;7.28;100.00
55271;BME280;41132;47.162;9.470;2023-04-01T20:42:21;95813.63;;;7.20;100.00
55271;BME280;41132;47.162;9.470;2023-04-01T20:45:10;95822.22;;;7.12;100.00
55271;BME280;41132;47.162;9.470;2023-04-01T20:50:35;95825.50;;;7.14;100.00
55271;BME280;41132;47.162;9.470;2023-04-01T20:53:36;95832.97;;;7.27;100.00
55271;BME280;41132;47.162;9.470;2023-04-01T20:58:57;95828.78;;;7.34;100.00
55271;BME280;41132;47.162;9.470;2023-04-01T21:06:52;95835.56;;;7.27;100.00
55271;BME280;41132;47.162;9.470;2023-04-01T21:09:41;95841.59;;;7.27;100.00
55271;BME280;41132;47.162;9.470;2023-04-01T21:22:55;95841.88;;;7.24;100.00
55271;BME280;41132;47.162;9.470;2023-04-01T21:25:44;95839.91;;;7.18;100.00
55271;BME280;41132;47.162;9.470;2023-04-01T21:37:18;95864.34;;;6.99;100.00
55271;BME280;41132;47.162;9.470;2023-04-01T21:45:37;95876.22;;;7.11;100.00
55271;BME280;41132;47.162;9.470;2023-04-01T21:51:21;95880.31;;;7.14;100.00
55271;BME280;41132;47.162;9.470;2023-04-01T22:02:09;95871.44;;;6.89;100.00
55271;BME280;41132;47.162;9.470;2023-04-01T22:07:33;95869.88;;;7.14;100.00
55271;BME280;41132;47.162;9.470;2023-04-01T22:10:28;95882.84;;;7.24;100.00
55271;BME280;41132;47.162;9.470;2023-04-01T22:13:01;95879.94;;;7.27;100.00
55271;BME280;41132;47.162;9.470;2023-04-01T22:18:21;95879.06;;;7.18;100.00
55271;BME280;41132;47.162;9.470;2023-04-01T22:21:12;95877.91;;;7.03;100.00
55271;BME280;41132;47.162;9.470;2023-04-01T22:23:39;95874.78;;;6.99;100.00
55271;BME280;41132;47.162;9.470;2023-04-01T22:26:29;95879.19;;;6.99;100.00
55271;BME280;41132;47.162;9.470;2023-04-01T22:29:27;95867.63;;;7.01;100.00
55271;BME280;41132;47.162;9.470;2023-04-01T22:34:36;95875.75;;;7.16;100.00
55271;BME280;41132;47.162;9.470;2023-04-01T22:37:23;95859.44;;;7.32;100.00
55271;BME280;41132;47.162;9.470;2023-04-01T22:47:45;95881.72;;;6.90;100.00
55271;BME280;41132;47.162;9.470;2023-04-01T22:50:23;95883.09;;;6.67;100.00
55271;BME280;41132;47.162;9.470;2023-04-01T22:52:59;95881.94;;;6.79;100.00